Gretna, Virginia
Current Conditions -  °F | °C
As of 3:15 PM on Thursday 23 Oct 2014 (Local Time) from K0V4 Reporting Station
Clear Clear  
Wind Chill: 70°   Ceiling: Unl
Heat Index: 70°   Visibility: 10mi
Dew Point: 48°   Wind: 14mph
Humidity: 45%   Direction: 320°NW
Pressure: 29.93"   Gusts: 24mph
Location:  36.95°N, 79.36°W
Report Text: K0V4 231915Z AUTO 32012G21KT 10SM CLR 21/09 A2993 RMK AO1 T02110088
Loading
Personal Weather Stations






























Interactive Weather Map
Tropical Storm Tracking
New forecast layout! Learn more

10-Day Weather Forecast

Advertisements
Track Severe Weather on mobile